Dana Point, CA (92629)

3:58 AM PDT on March 30, 2015 (GMT -0700)
City Hall | | Change Station
CLOSE
Current Station
Personal Weather Station
Location: Dana Point, CA
Elevation: 308 ft
Nearby Weather Stations

Elev 308 ft 33.48 °N, 117.70 °W | Updated 23 days ago

Partly Cloudy
Partly Cloudy
57 °F
Feels Like 57 °F
N
0
Wind Variable Wind from NNW
Gusts mph

Today
High -- | Low -- °F
--% Chance of Precip.
Yesterday
High -- | Low -- °F
Precip. -- in
6:41 AM 7:09 PM
Waxing Gibbous, 79% visible
Pressure 29.99 in
Visibility 2.5 miles
Clouds Overcast 300 ft
Dew Point 51 °F
Humidity 81%
Rainfall in
Snow Depth Not available.
UV 0 out of 12
Pollen 8.80 out of 12
Air Quality Not available.
Flu Activity Not available.
METAR KSNA 301053Z AUTO 00000KT 2 1/2SM BR OVC003 14/13 A2999 RMK AO2 SLP154 T01440133 TSNO $

More Conditions Fewer Conditions

Pressure 29.99 in
Visibility 2.5 miles
Clouds Overcast 300 ft
Dew Point 51 °F
Humidity 81%
Rainfall in
Snow Depth Not available.
UV 0 out of 12
Pollen 8.80 out of 12
Air Quality Not available.
Flu Activity Not available.
METAR KSNA 301053Z AUTO 00000KT 2 1/2SM BR OVC003 14/13 A2999 RMK AO2 SLP154 T01440133 TSNO $

More Conditions Fewer Conditions

10-Day Weather Forecast

Almanac

Astronomy

Mar. 30, 2015 Rise Set
Actual Time
Civil Twilight
Nautical Twilight
Astronomical Twilight
Moon
Length of Visible Light
Length of Day
Tomorrow will be .
, % of the Moon is Illuminated

Today's Extremes

State Highs State Lows

Community

WunderPhotos

Upload Photos

1,809,455 photos uploaded!

WunderBlogs® & News

Nearby

Air Quality

  Air Quality AQ Index Pollutant
Not available.

Snow Depth

Station Depth Elevation

Earthquake Activity

City Distance Mag. Time & Date
Minimum magnitude displayed is 2.5.

Coastal Water Temperatures

Place Temperature

Stations

Nearby Weather Stations

Station Location Temp. Windchill Dew Point Humidity Wind Precip. Elev Updated Type